createdAt,value
2022-11-14T00:01:31.497Z,6.70
2022-11-14T00:04:00.866Z,6.80
2022-11-14T00:06:28.826Z,6.70
2022-11-14T00:08:56.790Z,6.60
2022-11-14T00:11:25.016Z,6.70
2022-11-14T00:13:53.139Z,6.80
2022-11-14T00:16:21.135Z,6.90
2022-11-14T00:18:49.126Z,6.80
2022-11-14T00:21:18.514Z,6.80
2022-11-14T00:23:46.500Z,6.80
2022-11-14T00:26:14.503Z,6.70
2022-11-14T00:28:42.501Z,6.70
2022-11-14T00:31:10.870Z,6.80
2022-11-14T00:33:39.766Z,6.80
2022-11-14T00:36:07.925Z,6.80
2022-11-14T00:38:37.221Z,6.80
2022-11-14T00:41:05.261Z,6.80
2022-11-14T00:43:33.250Z,6.80
2022-11-14T00:46:03.529Z,6.80
2022-11-14T00:48:31.811Z,6.70
2022-11-14T00:50:59.909Z,6.70
2022-11-14T00:53:27.901Z,6.70
2022-11-14T00:55:57.280Z,6.50
2022-11-14T00:58:25.289Z,6.40
2022-11-14T01:00:54.114Z,6.50
2022-11-14T01:03:22.221Z,6.50
2022-11-14T01:05:52.027Z,6.60
2022-11-14T01:08:20.839Z,6.50
2022-11-14T01:10:51.741Z,6.50
2022-11-14T01:13:21.373Z,6.30
2022-11-14T01:15:50.597Z,6.40
2022-11-14T01:18:21.345Z,6.40
2022-11-14T01:20:50.475Z,6.40
2022-11-14T01:23:18.818Z,6.30
2022-11-14T01:25:47.222Z,6.30
2022-11-14T01:28:17.709Z,6.30
2022-11-14T01:30:47.177Z,6.30
2022-11-14T01:33:15.165Z,6.20
2022-11-14T01:35:43.166Z,6.20
2022-11-14T01:38:15.628Z,6.20
2022-11-14T01:40:44.965Z,6.00
2022-11-14T01:43:32.111Z,6.00
2022-11-14T01:46:06.025Z,6.00
2022-11-14T01:48:40.525Z,6.10
2022-11-14T01:51:23.057Z,6.20
2022-11-14T01:53:57.306Z,6.30
2022-11-14T01:56:32.834Z,6.10
2022-11-14T01:59:07.481Z,6.00
2022-11-14T02:01:43.614Z,6.10
2022-11-14T02:04:15.785Z,6.20
2022-11-14T02:06:44.640Z,6.30
2022-11-14T02:09:13.039Z,6.30
2022-11-14T02:11:44.679Z,6.10
2022-11-14T02:14:13.274Z,6.30
2022-11-14T02:16:55.474Z,6.20
2022-11-14T02:19:43.932Z,6.20
2022-11-14T02:22:13.437Z,6.20
2022-11-14T02:24:41.896Z,5.90
2022-11-14T02:27:11.331Z,6.00
2022-11-14T02:29:39.460Z,5.90
2022-11-14T02:32:10.660Z,5.80
2022-11-14T02:34:39.544Z,5.70
2022-11-14T02:37:08.125Z,5.60
2022-11-14T02:39:37.460Z,5.70
2022-11-14T02:42:05.813Z,5.80
2022-11-14T02:44:33.848Z,5.80
2022-11-14T02:47:01.839Z,5.60
2022-11-14T02:49:29.853Z,5.30
2022-11-14T02:51:57.860Z,5.10
2022-11-14T02:54:25.837Z,5.00
2022-11-14T02:56:55.189Z,5.00
2022-11-14T02:59:23.204Z,5.00
2022-11-14T03:01:51.235Z,5.10
2022-11-14T03:04:19.270Z,5.10
2022-11-14T03:06:47.243Z,5.20
2022-11-14T03:09:15.251Z,5.10
2022-11-14T03:11:43.265Z,5.10
2022-11-14T03:14:12.593Z,5.10
2022-11-14T03:16:40.619Z,5.20
2022-11-14T03:19:08.623Z,5.30
2022-11-14T03:21:36.635Z,5.50
2022-11-14T03:24:05.261Z,5.30
2022-11-14T03:26:33.229Z,5.20
2022-11-14T03:29:01.273Z,5.20
2022-11-14T03:31:30.658Z,5.20
2022-11-14T03:33:58.649Z,5.50
2022-11-14T03:36:26.729Z,5.50
2022-11-14T03:38:54.737Z,5.30
2022-11-14T03:41:22.715Z,5.10
2022-11-14T03:43:50.731Z,5.10
2022-11-14T03:46:18.790Z,5.30
2022-11-14T03:48:48.131Z,5.30
2022-11-14T03:51:16.162Z,5.40
2022-11-14T03:53:44.140Z,5.30
2022-11-14T03:56:12.196Z,5.20
2022-11-14T03:58:40.205Z,5.10
2022-11-14T04:01:08.765Z,5.20
2022-11-14T04:03:36.814Z,5.20
2022-11-14T04:06:06.776Z,5.20
2022-11-14T04:08:34.918Z,5.20
2022-11-14T04:11:02.988Z,5.20
2022-11-14T04:13:31.006Z,5.20
2022-11-14T04:16:00.170Z,5.30
2022-11-14T04:18:28.912Z,5.40
2022-11-14T04:20:57.144Z,5.40
2022-11-14T04:23:26.471Z,5.40
2022-11-14T04:25:54.491Z,5.40
2022-11-14T04:28:22.480Z,5.50
2022-11-14T04:30:50.477Z,5.50
2022-11-14T04:33:18.460Z,5.50
2022-11-14T04:35:46.489Z,5.50
2022-11-14T04:38:14.493Z,5.50
2022-11-14T04:40:50.622Z,5.60
2022-11-14T04:43:20.354Z,5.50
2022-11-14T04:45:48.515Z,5.50
2022-11-14T04:48:16.735Z,5.50
2022-11-14T04:50:46.600Z,5.60
2022-11-14T04:53:14.747Z,5.50
2022-11-14T04:55:45.935Z,5.50
2022-11-14T04:58:14.108Z,5.50
2022-11-14T05:00:42.293Z,5.50
2022-11-14T05:03:10.352Z,5.70
2022-11-14T05:05:41.918Z,5.80
2022-11-14T05:08:10.439Z,5.80
2022-11-14T05:10:38.412Z,5.80
2022-11-14T05:13:07.762Z,6.00
2022-11-14T05:15:36.331Z,6.20
2022-11-14T05:18:04.783Z,6.00
2022-11-14T05:20:32.756Z,6.10
2022-11-14T05:23:00.857Z,6.10
2022-11-14T05:25:28.867Z,6.10
2022-11-14T05:27:57.018Z,6.20
2022-11-14T05:30:26.362Z,6.10
2022-11-14T05:32:54.317Z,6.10
2022-11-14T05:35:22.319Z,6.00
2022-11-14T05:37:50.279Z,6.20
2022-11-14T05:40:19.158Z,6.20
2022-11-14T05:42:47.103Z,6.30
2022-11-14T05:45:15.222Z,6.30
2022-11-14T05:47:44.557Z,6.40
2022-11-14T05:50:12.937Z,6.20
2022-11-14T05:52:40.941Z,6.20
2022-11-14T05:55:10.156Z,6.30
2022-11-14T05:57:38.209Z,6.10
2022-11-14T06:00:07.516Z,6.00
2022-11-14T06:02:35.561Z,6.10
2022-11-14T06:05:05.359Z,6.20
2022-11-14T06:07:33.365Z,6.30
2022-11-14T06:10:01.386Z,6.30
2022-11-14T06:12:29.411Z,6.40
2022-11-14T06:14:57.393Z,6.30
2022-11-14T06:17:25.430Z,6.10
2022-11-14T06:19:53.434Z,6.00
2022-11-14T06:22:22.965Z,6.00
2022-11-14T06:24:50.986Z,6.10
2022-11-14T06:27:18.991Z,6.50
2022-11-14T06:29:46.989Z,6.40
2022-11-14T06:32:14.971Z,6.50
2022-11-14T06:34:42.951Z,6.30
2022-11-14T06:37:10.950Z,6.40
2022-11-14T06:39:40.247Z,6.50
2022-11-14T06:42:08.208Z,6.70
2022-11-14T06:44:36.224Z,6.50
2022-11-14T06:47:04.218Z,6.50
2022-11-14T06:49:35.330Z,6.50
2022-11-14T06:52:07.374Z,6.50
2022-11-14T06:54:35.385Z,6.40
2022-11-14T06:57:04.923Z,6.50
2022-11-14T06:59:32.898Z,6.50
2022-11-14T07:02:00.866Z,6.70
2022-11-14T07:04:28.886Z,6.70
2022-11-14T07:06:56.916Z,6.50
2022-11-14T07:09:24.935Z,6.40
2022-11-14T07:11:52.870Z,6.40
2022-11-14T07:14:22.208Z,6.60
2022-11-14T07:16:50.201Z,6.60
2022-11-14T07:19:18.233Z,6.70
2022-11-14T07:21:46.266Z,6.80
2022-11-14T07:24:14.300Z,6.60
2022-11-14T07:26:42.296Z,6.70
2022-11-14T07:29:10.371Z,6.60
2022-11-14T07:31:43.226Z,6.50
2022-11-14T07:34:12.069Z,6.60
2022-11-14T07:36:40.049Z,6.70
2022-11-14T07:39:08.287Z,6.70
2022-11-14T07:41:36.322Z,6.60
2022-11-14T07:44:04.493Z,6.60
2022-11-14T07:46:32.453Z,6.60
2022-11-14T07:49:01.975Z,6.70
2022-11-14T07:51:29.995Z,6.70
2022-11-14T07:53:57.997Z,6.70
2022-11-14T07:56:26.688Z,6.60
2022-11-14T07:58:54.649Z,6.60
2022-11-14T08:01:22.740Z,6.50
2022-11-14T08:03:50.792Z,6.40
2022-11-14T08:06:20.130Z,6.50
2022-11-14T08:08:48.111Z,6.70
2022-11-14T08:11:31.600Z,6.60
2022-11-14T08:14:03.065Z,6.90
2022-11-14T08:16:31.080Z,6.80
2022-11-14T08:18:59.161Z,6.70
2022-11-14T08:21:31.063Z,6.60
2022-11-14T08:23:59.397Z,6.60
2022-11-14T08:26:32.950Z,6.60
2022-11-14T08:29:02.621Z,6.70
2022-11-14T08:31:31.792Z,6.70
2022-11-14T08:33:59.895Z,6.60
2022-11-14T08:36:29.285Z,6.70
2022-11-14T08:39:01.580Z,6.70
2022-11-14T08:41:30.182Z,6.60
2022-11-14T08:44:00.724Z,6.60
2022-11-14T08:46:29.351Z,6.60
2022-11-14T08:48:57.483Z,6.60
2022-11-14T08:51:25.539Z,6.50
2022-11-14T08:53:54.965Z,6.50
2022-11-14T08:56:23.029Z,6.70
2022-11-14T08:58:51.070Z,6.70
2022-11-14T09:01:19.172Z,6.60
2022-11-14T09:03:47.357Z,6.60
2022-11-14T09:06:15.518Z,6.50
2022-11-14T09:08:43.572Z,6.50
2022-11-14T09:11:16.636Z,6.50
2022-11-14T09:13:46.991Z,6.50
2022-11-14T09:16:15.033Z,6.50
2022-11-14T09:18:43.134Z,6.50
2022-11-14T09:21:12.379Z,6.50
2022-11-14T09:23:40.376Z,6.40
2022-11-14T09:26:10.045Z,6.40
2022-11-14T09:28:39.413Z,6.60
2022-11-14T09:31:13.915Z,6.60
2022-11-14T09:33:41.984Z,6.60
2022-11-14T09:36:15.726Z,6.60
2022-11-14T09:38:45.874Z,6.80
2022-11-14T09:41:26.996Z,6.70
2022-11-14T09:44:46.047Z,6.80
2022-11-14T09:47:21.004Z,7.00
2022-11-14T09:49:52.648Z,7.00
2022-11-14T09:52:32.322Z,7.10
2022-11-14T09:55:06.205Z,7.30
2022-11-14T09:57:35.466Z,7.50
2022-11-14T10:00:14.342Z,7.50
2022-11-14T10:03:01.729Z,7.30
2022-11-14T10:05:55.597Z,7.20
2022-11-14T10:08:45.586Z,7.10
2022-11-14T10:11:20.775Z,7.00
2022-11-14T10:14:31.894Z,7.30
2022-11-14T10:17:18.909Z,7.30
2022-11-14T10:19:55.118Z,7.20
2022-11-14T10:22:41.801Z,7.20
2022-11-14T10:25:24.011Z,7.30
2022-11-14T10:28:14.611Z,7.50
2022-11-14T10:30:52.556Z,7.50
2022-11-14T10:33:35.183Z,7.70
2022-11-14T10:36:14.413Z,7.70
2022-11-14T10:38:50.746Z,7.70
2022-11-14T10:41:41.900Z,7.60
2022-11-14T10:44:13.257Z,7.70
2022-11-14T10:46:47.952Z,7.90
2022-11-14T10:49:22.733Z,7.90
2022-11-14T10:51:54.808Z,8.00
2022-11-14T10:54:28.135Z,8.00
2022-11-14T10:56:56.771Z,8.00
2022-11-14T10:59:27.586Z,8.10
2022-11-14T11:01:57.408Z,8.30
2022-11-14T11:04:32.367Z,8.50
2022-11-14T11:07:39.958Z,9.10
2022-11-14T11:10:38.487Z,9.20
2022-11-14T11:13:06.697Z,9.20
2022-11-14T11:15:42.459Z,9.30
2022-11-14T11:18:27.896Z,9.40
2022-11-14T11:21:10.153Z,9.40
2022-11-14T11:23:52.680Z,9.60
2022-11-14T11:26:24.698Z,9.80
2022-11-14T11:29:18.193Z,10.30
2022-11-14T11:31:54.736Z,10.30
2022-11-14T11:34:26.654Z,10.60
2022-11-14T11:37:02.025Z,10.90
2022-11-14T11:39:33.260Z,11.40
2022-11-14T11:42:10.445Z,11.80
2022-11-14T11:44:44.914Z,12.00
2022-11-14T11:47:18.263Z,12.00
2022-11-14T11:49:53.477Z,11.80
2022-11-14T11:52:34.681Z,11.60
2022-11-14T11:55:15.745Z,11.30
2022-11-14T11:57:46.434Z,11.20
2022-11-14T12:00:19.194Z,11.00
2022-11-14T12:02:50.504Z,10.70
2022-11-14T12:05:27.339Z,10.40
2022-11-14T12:08:04.297Z,10.30
2022-11-14T12:10:36.642Z,10.10
2022-11-14T12:13:47.431Z,10.00
2022-11-14T12:16:40.518Z,10.10
2022-11-14T12:19:49.701Z,10.10
2022-11-14T12:22:49.442Z,9.90
2022-11-14T12:25:53.178Z,10.00
2022-11-14T12:28:36.731Z,10.00
2022-11-14T12:31:07.696Z,9.90
2022-11-14T12:33:39.176Z,10.00
2022-11-14T12:36:12.663Z,10.00
2022-11-14T12:38:46.483Z,10.00
2022-11-14T12:41:26.376Z,10.10
2022-11-14T12:43:54.628Z,9.80
2022-11-14T12:46:22.672Z,9.80
2022-11-14T12:48:50.668Z,9.70
2022-11-14T12:51:52.428Z,9.80
2022-11-14T12:54:46.690Z,9.80
2022-11-14T12:57:40.474Z,9.80
2022-11-14T13:00:10.628Z,10.00
2022-11-14T13:03:08.535Z,9.90
2022-11-14T13:05:56.883Z,10.00
2022-11-14T13:09:10.567Z,10.10
2022-11-14T13:12:00.201Z,10.10
2022-11-14T13:14:48.087Z,10.20
2022-11-14T13:17:45.454Z,10.20
2022-11-14T13:20:47.580Z,10.20
2022-11-14T13:23:56.898Z,10.20
2022-11-14T13:26:58.543Z,10.20
2022-11-14T13:29:58.684Z,10.20
2022-11-14T13:33:08.655Z,10.00
2022-11-14T13:35:58.461Z,10.00
2022-11-14T13:39:23.500Z,10.00
2022-11-14T13:42:27.076Z,10.00
2022-11-14T13:45:22.343Z,10.00
2022-11-14T13:48:27.909Z,10.00
2022-11-14T13:51:21.519Z,9.80
2022-11-14T13:53:50.398Z,10.00
2022-11-14T13:56:35.086Z,10.20
2022-11-14T13:59:50.926Z,10.20
2022-11-14T14:03:15.751Z,10.20
2022-11-14T14:06:13.115Z,10.20
2022-11-14T14:09:05.270Z,10.20
2022-11-14T14:11:51.632Z,10.00
2022-11-14T14:14:42.417Z,10.00
2022-11-14T14:17:16.416Z,10.10
2022-11-14T14:20:02.726Z,10.30
2022-11-14T14:22:41.368Z,10.20
2022-11-14T14:25:20.646Z,10.20
2022-11-14T14:28:02.729Z,10.20
2022-11-14T14:30:30.877Z,10.30
2022-11-14T14:33:13.201Z,10.30
2022-11-14T14:35:51.761Z,10.40
2022-11-14T14:38:28.482Z,10.40
2022-11-14T14:40:57.602Z,10.50
2022-11-14T14:43:32.601Z,10.40
2022-11-14T14:46:02.073Z,10.50
2022-11-14T14:48:35.104Z,10.60
2022-11-14T14:51:05.799Z,10.70
2022-11-14T14:53:35.951Z,10.80
2022-11-14T14:56:08.788Z,10.70
2022-11-14T14:58:38.317Z,10.50
2022-11-14T15:01:12.104Z,10.40
2022-11-14T15:03:44.179Z,10.20
2022-11-14T15:06:31.132Z,10.20
2022-11-14T15:09:01.751Z,10.10
2022-11-14T15:11:32.774Z,10.20
2022-11-14T15:14:03.010Z,10.10
2022-11-14T15:16:31.595Z,10.10
2022-11-14T15:19:00.301Z,10.20
2022-11-14T15:21:31.173Z,10.20
2022-11-14T15:24:02.341Z,10.30
2022-11-14T15:26:31.719Z,10.20
2022-11-14T15:29:18.656Z,10.20
2022-11-14T15:31:53.182Z,10.20
2022-11-14T15:34:28.450Z,10.10
2022-11-14T15:37:23.566Z,10.10
2022-11-14T15:39:51.717Z,10.20
2022-11-14T15:42:27.658Z,10.20
2022-11-14T15:44:56.432Z,10.20
2022-11-14T15:47:26.731Z,10.30
2022-11-14T15:50:03.526Z,10.20
2022-11-14T15:52:38.547Z,10.40
2022-11-14T15:55:15.074Z,10.20
2022-11-14T15:57:45.361Z,10.30
2022-11-14T16:00:19.110Z,10.30
2022-11-14T16:02:51.794Z,10.40
2022-11-14T16:05:25.665Z,10.60
2022-11-14T16:07:55.204Z,10.60
2022-11-14T16:10:26.357Z,10.50
2022-11-14T16:12:54.901Z,10.50
2022-11-14T16:15:23.506Z,10.40
2022-11-14T16:17:51.981Z,10.50
2022-11-14T16:20:22.819Z,10.40
2022-11-14T16:22:53.075Z,10.40
2022-11-14T16:25:25.725Z,10.50
2022-11-14T16:27:53.851Z,10.50
2022-11-14T16:30:24.104Z,10.60
2022-11-14T16:32:53.059Z,10.60
2022-11-14T16:35:23.965Z,10.50
2022-11-14T16:37:52.869Z,10.50
2022-11-14T16:40:26.764Z,10.50
2022-11-14T16:42:56.692Z,10.40
2022-11-14T16:45:26.402Z,10.60
2022-11-14T16:47:54.487Z,10.50
2022-11-14T16:50:22.628Z,10.50
2022-11-14T16:52:50.617Z,10.70
2022-11-14T16:55:18.756Z,10.80
2022-11-14T16:57:48.943Z,10.70
2022-11-14T17:00:18.340Z,10.50
2022-11-14T17:02:47.435Z,10.30
2022-11-14T17:05:16.373Z,10.30
2022-11-14T17:07:44.349Z,10.20
2022-11-14T17:10:12.386Z,10.20
2022-11-14T17:12:40.366Z,10.20
2022-11-14T17:15:10.695Z,10.20
2022-11-14T17:17:38.663Z,10.30
2022-11-14T17:20:08.688Z,10.30
2022-11-14T17:22:36.746Z,10.60
2022-11-14T17:25:05.335Z,10.60
2022-11-14T17:27:33.322Z,10.50
2022-11-14T17:30:01.339Z,10.40
2022-11-14T17:32:32.178Z,10.40
2022-11-14T17:35:00.188Z,10.50
2022-11-14T17:37:28.215Z,10.40
2022-11-14T17:39:56.216Z,10.40
2022-11-14T17:42:24.224Z,10.40
2022-11-14T17:44:52.960Z,10.40
2022-11-14T17:47:21.379Z,10.40
2022-11-14T17:49:50.961Z,10.40
2022-11-14T17:52:18.995Z,10.40
2022-11-14T17:54:47.004Z,10.30
2022-11-14T17:57:15.050Z,10.40
2022-11-14T17:59:45.193Z,10.50
2022-11-14T18:02:15.419Z,10.40
2022-11-14T18:04:43.422Z,10.50
2022-11-14T18:07:12.865Z,10.50
2022-11-14T18:09:41.343Z,10.40
2022-11-14T18:12:09.456Z,10.40
2022-11-14T18:14:37.525Z,10.40
2022-11-14T18:17:12.868Z,10.50
2022-11-14T18:19:41.570Z,10.40
2022-11-14T18:22:10.001Z,10.40
2022-11-14T18:24:43.236Z,10.40
2022-11-14T18:27:11.233Z,10.30
2022-11-14T18:29:39.216Z,10.10
2022-11-14T18:32:07.362Z,10.00
2022-11-14T18:34:38.407Z,9.90
2022-11-14T18:37:08.915Z,9.80
2022-11-14T18:39:36.975Z,9.80
2022-11-14T18:42:06.539Z,9.80
2022-11-14T18:44:34.556Z,10.00
2022-11-14T18:47:02.571Z,10.10
2022-11-14T18:49:30.661Z,10.00
2022-11-14T18:52:01.172Z,9.80
2022-11-14T18:54:33.592Z,9.80
2022-11-14T18:57:01.618Z,9.90
2022-11-14T18:59:30.990Z,9.80
2022-11-14T19:01:59.429Z,9.80
2022-11-14T19:04:27.524Z,9.90
2022-11-14T19:06:56.298Z,10.00
2022-11-14T19:09:24.371Z,9.90
2022-11-14T19:12:09.986Z,9.90
2022-11-14T19:14:39.377Z,10.10
2022-11-14T19:17:08.536Z,9.80
2022-11-14T19:19:36.573Z,9.80
2022-11-14T19:22:04.636Z,9.80
2022-11-14T19:24:32.641Z,9.90
2022-11-14T19:27:00.653Z,9.80
2022-11-14T19:29:29.047Z,9.80
2022-11-14T19:31:58.420Z,9.80
2022-11-14T19:34:26.477Z,9.70
2022-11-14T19:37:00.329Z,9.60
2022-11-14T19:39:29.163Z,9.70
2022-11-14T19:41:57.245Z,9.70
2022-11-14T19:44:25.266Z,9.70
2022-11-14T19:46:53.233Z,9.60
2022-11-14T19:49:22.684Z,9.60
2022-11-14T19:51:50.993Z,9.40
2022-11-14T19:54:19.175Z,9.30
2022-11-14T19:56:47.190Z,9.20
2022-11-14T19:59:18.962Z,9.10
2022-11-14T20:01:55.087Z,9.10
2022-11-14T20:04:28.286Z,9.20
2022-11-14T20:06:56.759Z,9.10
2022-11-14T20:09:27.838Z,9.20
2022-11-14T20:11:56.129Z,9.10
2022-11-14T20:14:24.328Z,9.20
2022-11-14T20:16:52.479Z,9.10
2022-11-14T20:19:20.786Z,9.20
2022-11-14T20:21:53.177Z,9.30
2022-11-14T20:24:22.519Z,9.30
2022-11-14T20:26:50.669Z,9.30
2022-11-14T20:29:18.839Z,9.50
2022-11-14T20:31:46.981Z,9.60
2022-11-14T20:34:15.129Z,9.40
2022-11-14T20:37:09.433Z,9.30
2022-11-14T20:39:33.095Z,9.10
2022-11-14T20:42:01.242Z,8.90
2022-11-14T20:44:29.369Z,8.80
2022-11-14T20:46:57.533Z,8.80
2022-11-14T20:49:28.313Z,9.00
2022-11-14T20:51:56.436Z,8.90
2022-11-14T20:54:26.919Z,8.80
2022-11-14T20:56:56.397Z,8.80
2022-11-14T20:59:26.646Z,8.70
2022-11-14T21:01:54.891Z,8.80
2022-11-14T21:04:23.142Z,8.80
2022-11-14T21:06:51.170Z,8.80
2022-11-14T21:09:19.217Z,8.80
2022-11-14T21:11:47.217Z,8.90
2022-11-14T21:14:16.588Z,8.80
2022-11-14T21:16:44.645Z,8.90
2022-11-14T21:19:12.632Z,8.80
2022-11-14T21:21:40.713Z,8.70
2022-11-14T21:24:09.053Z,8.90
2022-11-14T21:26:40.047Z,9.00
2022-11-14T21:29:15.361Z,9.20
2022-11-14T21:31:47.092Z,8.90
2022-11-14T21:34:17.807Z,9.00
2022-11-14T21:36:46.940Z,9.00
2022-11-14T21:39:16.658Z,9.00
2022-11-14T21:41:48.133Z,9.00
2022-11-14T21:44:17.851Z,8.90
2022-11-14T21:46:48.571Z,9.00
2022-11-14T21:49:16.968Z,9.10
2022-11-14T21:51:45.012Z,9.00
2022-11-14T21:54:13.119Z,8.90
2022-11-14T21:56:41.269Z,8.90
2022-11-14T21:59:18.319Z,8.90
2022-11-14T22:02:07.645Z,8.90
2022-11-14T22:04:36.656Z,8.90
2022-11-14T22:07:07.775Z,9.00
2022-11-14T22:09:39.975Z,9.00
2022-11-14T22:12:10.706Z,8.90
2022-11-14T22:14:39.097Z,8.90
2022-11-14T22:17:08.500Z,9.20
2022-11-14T22:19:37.142Z,9.20
2022-11-14T22:22:05.215Z,9.10
2022-11-14T22:24:33.915Z,9.10
2022-11-14T22:27:01.923Z,9.10
2022-11-14T22:29:30.098Z,9.10
2022-11-14T22:31:59.638Z,9.10
2022-11-14T22:34:29.218Z,9.40
2022-11-14T22:36:57.218Z,9.30
2022-11-14T22:39:25.255Z,9.50
2022-11-14T22:41:53.238Z,9.40
2022-11-14T22:44:21.287Z,9.40
2022-11-14T22:46:49.364Z,9.20
2022-11-14T22:49:21.066Z,9.50
2022-11-14T22:51:50.723Z,9.50
2022-11-14T22:54:20.297Z,9.30
2022-11-14T22:56:48.282Z,9.20
2022-11-14T22:59:16.301Z,9.30
2022-11-14T23:01:44.320Z,9.20
2022-11-14T23:04:13.313Z,9.50
2022-11-14T23:06:41.334Z,9.40
2022-11-14T23:09:10.892Z,9.40
2022-11-14T23:11:38.954Z,9.50
2022-11-14T23:14:06.958Z,9.60
2022-11-14T23:16:35.617Z,9.30
2022-11-14T23:19:07.737Z,9.30
2022-11-14T23:21:37.882Z,9.10
2022-11-14T23:24:09.389Z,9.20
2022-11-14T23:26:38.748Z,9.00
2022-11-14T23:29:06.792Z,9.00
2022-11-14T23:31:34.806Z,8.90
2022-11-14T23:34:02.806Z,9.00
2022-11-14T23:36:30.787Z,9.00
2022-11-14T23:38:58.810Z,8.90
2022-11-14T23:41:26.840Z,8.70
2022-11-14T23:43:56.162Z,8.70
2022-11-14T23:46:24.153Z,8.60
2022-11-14T23:48:53.281Z,8.50
2022-11-14T23:51:21.313Z,8.40
2022-11-14T23:53:49.325Z,8.60
2022-11-14T23:56:17.301Z,8.50
2022-11-14T23:58:45.321Z,8.50
